Pendroy, Montana
Current Conditions -  °F | °C
As of 12:56 AM on Monday 24 Nov 2014 (Local Time) from KCTB Reporting Station
Clear Clear  
Wind Chill: 20°   Ceiling: Unl
Heat Index: 31°   Visibility: 10mi
Dew Point: 20°   Wind: 16mph
Humidity: 64%   Direction: 290°WNW
Pressure: 29.84"   Gusts: NA
Location:  48.07°N, 112.3°W
Report Text: KCTB 240756Z AUTO 29014KT 10SM CLR M01/M07 A2984 RMK AO2 SLP123 T10061067
Loading
Personal Weather Stations






























Interactive Weather Map New forecast layout! Learn more

10-Day Weather Forecast

Advertisements
Track Severe Weather on mobile